createdAt,value
2018-07-21T00:01:53.686Z,101007.00
2018-07-21T00:04:22.064Z,101007.77
2018-07-21T00:06:50.476Z,101006.36
2018-07-21T00:09:29.290Z,101003.02
2018-07-21T00:11:57.659Z,101006.17
2018-07-21T00:14:26.015Z,101006.34
2018-07-21T00:16:54.396Z,101000.59
2018-07-21T00:19:22.779Z,100999.05
2018-07-21T00:21:51.153Z,100999.19
2018-07-21T00:24:19.536Z,100998.39
2018-07-21T00:26:47.924Z,100990.79
2018-07-21T00:29:17.143Z,100987.23
2018-07-21T00:31:45.574Z,100984.05
2018-07-21T00:34:13.920Z,100985.34
2018-07-21T00:36:42.296Z,100986.77
2018-07-21T00:39:10.660Z,100987.21
2018-07-21T00:41:39.408Z,100983.78
2018-07-21T00:44:07.919Z,100982.25
2018-07-21T00:46:36.295Z,100975.38
2018-07-21T00:49:04.691Z,100969.94
2018-07-21T00:51:33.312Z,100969.80
2018-07-21T00:54:01.463Z,100967.11
2018-07-21T00:56:29.846Z,100966.55
2018-07-21T00:58:58.228Z,100961.02
2018-07-21T01:01:26.600Z,100965.47
2018-07-21T01:03:54.965Z,100961.09
2018-07-21T01:12:20.622Z,100955.47
2018-07-21T01:14:49.000Z,100952.58
2018-07-21T01:17:17.414Z,100956.19
2018-07-21T01:19:45.990Z,100957.82
2018-07-21T01:22:14.169Z,100955.37
2018-07-21T01:24:42.800Z,100960.98
2018-07-21T01:27:13.101Z,100958.88
2018-07-21T01:29:41.473Z,100954.94
2018-07-21T01:32:10.796Z,100949.03
2018-07-21T01:34:39.155Z,100954.24
2018-07-21T01:37:07.531Z,100955.18
2018-07-21T01:39:36.845Z,100955.94
2018-07-21T01:42:05.214Z,100962.06
2018-07-21T01:44:33.967Z,100963.03
2018-07-21T01:47:02.333Z,100965.14
2018-07-21T01:49:30.708Z,100969.61
2018-07-21T01:51:59.080Z,100970.25
2018-07-21T01:54:27.444Z,100972.70
2018-07-21T01:56:55.862Z,100967.09
2018-07-21T01:59:24.222Z,100965.63
2018-07-21T02:01:52.599Z,100968.65
2018-07-21T02:04:21.064Z,100961.17
2018-07-21T02:06:49.446Z,100958.11
2018-07-21T02:09:17.819Z,100955.84
2018-07-21T02:11:46.232Z,100960.27
2018-07-21T02:14:14.613Z,100962.54
2018-07-21T02:16:42.984Z,100961.26
2018-07-21T02:19:11.603Z,100970.77
2018-07-21T02:21:39.989Z,100964.30
2018-07-21T02:24:08.365Z,100961.39
2018-07-21T02:26:37.044Z,100962.43
2018-07-21T02:29:06.184Z,100966.17
2018-07-21T02:31:34.789Z,100962.09
2018-07-21T02:34:04.065Z,100966.70
2018-07-21T02:36:32.453Z,100969.34
2018-07-21T02:39:00.820Z,100970.91
2018-07-21T02:41:28.985Z,100973.78
2018-07-21T02:43:57.348Z,100969.52
2018-07-21T02:46:25.775Z,100976.67
2018-07-21T02:48:54.152Z,100980.78
2018-07-21T02:51:22.557Z,100986.88
2018-07-21T02:53:50.940Z,100986.03
2018-07-21T02:56:19.329Z,100991.11
2018-07-21T02:58:47.701Z,100990.84
2018-07-21T03:01:16.645Z,100988.83
2018-07-21T03:03:44.802Z,100986.67
2018-07-21T03:06:13.429Z,100979.90
2018-07-21T03:08:41.815Z,100992.16
2018-07-21T03:11:10.166Z,100986.23
2018-07-21T03:13:38.562Z,100984.30
2018-07-21T03:16:06.926Z,100992.16
2018-07-21T03:18:35.519Z,100977.52
2018-07-21T03:21:03.893Z,100974.52
2018-07-21T03:23:32.262Z,100977.27
2018-07-21T03:26:00.646Z,100979.92
2018-07-21T03:28:29.315Z,100978.32
2018-07-21T03:30:57.724Z,100980.59
2018-07-21T03:33:26.059Z,100981.55
2018-07-21T03:35:54.432Z,100976.84
2018-07-21T03:38:22.793Z,100982.36
2018-07-21T03:40:51.189Z,100979.45
2018-07-21T03:43:19.560Z,100980.59
2018-07-21T03:45:48.079Z,100975.13
2018-07-21T03:48:16.447Z,100968.25
2018-07-21T03:50:45.035Z,100963.61
2018-07-21T03:53:13.198Z,100963.53
2018-07-21T03:55:41.568Z,100965.79
2018-07-21T03:58:09.978Z,100961.60
2018-07-21T04:00:39.115Z,100964.23
2018-07-21T04:03:07.485Z,100961.68
2018-07-21T04:05:35.866Z,100962.91
2018-07-21T04:08:04.245Z,100958.14
2018-07-21T04:10:32.960Z,100958.39
2018-07-21T04:13:02.027Z,100956.02
2018-07-21T04:15:30.407Z,100952.63
2018-07-21T04:17:59.004Z,100955.69
2018-07-21T04:20:27.146Z,100954.12
2018-07-21T04:22:55.682Z,100953.41
2018-07-21T04:25:24.059Z,100955.03
2018-07-21T04:27:52.435Z,100950.91
2018-07-21T04:30:20.804Z,100953.00
2018-07-21T04:32:49.171Z,100954.47
2018-07-21T04:35:18.415Z,100947.84
2018-07-21T04:37:46.789Z,100952.66
2018-07-21T04:40:15.179Z,100951.20
2018-07-21T04:42:43.560Z,100945.02
2018-07-21T04:45:11.931Z,100946.44
2018-07-21T04:47:40.304Z,100945.15
2018-07-21T04:50:08.675Z,100950.36
2018-07-21T04:52:37.042Z,100946.69
2018-07-21T04:55:05.424Z,100945.83
2018-07-21T04:57:33.792Z,100935.83
2018-07-21T05:00:02.187Z,100937.85
2018-07-21T05:02:30.560Z,100940.42
2018-07-21T05:04:58.935Z,100937.96
2018-07-21T05:07:27.638Z,100933.41
2018-07-21T05:09:56.791Z,100933.39
2018-07-21T05:12:25.735Z,100938.83
2018-07-21T05:14:54.091Z,100942.33
2018-07-21T05:17:22.464Z,100942.56
2018-07-21T05:19:50.836Z,100938.79
2018-07-21T05:22:19.198Z,100945.61
2018-07-21T05:24:47.598Z,100947.16
2018-07-21T05:27:15.993Z,100952.22
2018-07-21T05:29:45.135Z,100953.11
2018-07-21T05:32:13.517Z,100951.91
2018-07-21T05:34:41.920Z,100955.81
2018-07-21T05:37:10.648Z,100949.77
2018-07-21T05:39:39.791Z,100958.18
2018-07-21T05:42:08.505Z,100963.41
2018-07-21T05:44:37.114Z,100959.47
2018-07-21T05:47:05.499Z,100962.68
2018-07-21T05:49:33.877Z,100965.42
2018-07-21T05:52:02.242Z,100970.88
2018-07-21T05:54:30.965Z,100973.14
2018-07-21T05:56:59.460Z,100968.72
2018-07-21T05:59:29.067Z,100967.79
2018-07-21T06:01:57.462Z,100967.21
2018-07-21T06:04:25.830Z,100967.00
2018-07-21T06:06:54.414Z,100963.11
2018-07-21T06:09:22.804Z,100962.72
2018-07-21T06:11:51.178Z,100962.28
2018-07-21T06:14:19.554Z,100961.02
2018-07-21T06:16:47.922Z,100957.55
2018-07-21T06:19:16.303Z,100959.67
2018-07-21T06:21:44.897Z,100962.49
2018-07-21T06:24:13.337Z,100960.69
2018-07-21T06:26:41.668Z,100967.55
2018-07-21T06:29:09.990Z,100964.78
2018-07-21T06:31:38.337Z,100967.28
2018-07-21T06:34:07.466Z,100961.66
2018-07-21T06:36:36.133Z,100964.53
2018-07-21T06:39:04.453Z,100963.27
2018-07-21T06:41:32.796Z,100968.86
2018-07-21T06:44:01.248Z,100968.00
2018-07-21T06:46:30.023Z,100972.98
2018-07-21T06:48:58.164Z,100974.72
2018-07-21T06:51:26.548Z,100976.11
2018-07-21T06:53:54.919Z,100979.59
2018-07-21T06:56:23.843Z,100980.11
2018-07-21T06:58:52.342Z,100978.11
2018-07-21T07:01:20.716Z,100980.49
2018-07-21T07:03:49.078Z,100978.70
2018-07-21T07:06:17.739Z,100977.32
2018-07-21T07:08:48.049Z,100982.10
2018-07-21T07:11:17.061Z,100976.21
2018-07-21T07:13:45.433Z,100978.98
2018-07-21T07:16:13.819Z,100977.91
2018-07-21T07:18:42.215Z,100981.41
2018-07-21T07:21:10.927Z,100986.76
2018-07-21T07:23:39.297Z,100978.14
2018-07-21T07:26:07.676Z,100976.08
2018-07-21T07:28:36.208Z,100980.77
2018-07-21T07:31:04.549Z,100984.19
2018-07-21T07:33:32.960Z,100984.39
2018-07-21T07:36:01.294Z,100974.67
2018-07-21T07:38:29.677Z,100980.53
2018-07-21T07:40:58.049Z,100983.65
2018-07-21T07:43:26.410Z,100986.44
2018-07-21T07:45:54.859Z,100995.78
2018-07-21T07:48:23.252Z,100994.39
2018-07-21T07:50:51.614Z,101004.53
2018-07-21T07:53:20.044Z,100998.81
2018-07-21T07:55:48.386Z,100993.81
2018-07-21T07:58:16.765Z,101003.25
2018-07-21T08:00:45.174Z,100999.09
2018-07-21T08:03:13.575Z,100997.81
2018-07-21T08:05:41.970Z,100996.14
2018-07-21T08:08:10.351Z,100997.20
2018-07-21T08:10:38.707Z,100991.48
2018-07-21T08:13:08.549Z,100990.47
2018-07-21T08:15:36.812Z,100991.52
2018-07-21T08:18:05.200Z,100990.47
2018-07-21T08:23:07.733Z,100989.22
2018-07-21T08:25:36.113Z,100989.87
2018-07-21T08:28:04.478Z,100987.34
2018-07-21T08:30:32.845Z,100993.35
2018-07-21T08:33:01.211Z,100989.52
2018-07-21T08:35:29.571Z,100983.22
2018-07-21T08:37:57.939Z,100981.54
2018-07-21T08:40:26.313Z,100978.55
2018-07-21T08:42:54.686Z,100981.69
2018-07-21T08:45:23.040Z,100991.48
2018-07-21T08:47:51.432Z,100993.80
2018-07-21T08:50:19.806Z,100990.81
2018-07-21T08:52:52.369Z,100990.25
2018-07-21T08:55:20.743Z,100993.91
2018-07-21T08:57:49.129Z,100993.03
2018-07-21T09:00:17.518Z,100994.27
2018-07-21T09:02:45.914Z,100992.72
2018-07-21T09:05:14.274Z,100992.25
2018-07-21T09:07:42.647Z,100995.73
2018-07-21T09:10:11.024Z,101000.30
2018-07-21T09:12:39.411Z,100997.46
2018-07-21T09:15:07.783Z,100993.03
2018-07-21T09:17:36.144Z,100992.66
2018-07-21T09:20:04.511Z,100989.22
2018-07-21T09:22:32.999Z,100994.20
2018-07-21T09:25:01.374Z,100990.53
2018-07-21T09:27:29.739Z,100991.05
2018-07-21T09:29:58.103Z,100992.59
2018-07-21T09:32:26.499Z,100994.63
2018-07-21T09:34:59.141Z,100995.68
2018-07-21T09:37:26.275Z,100988.45
2018-07-21T09:39:55.691Z,100988.86
2018-07-21T09:42:24.429Z,100989.61
2018-07-21T09:44:54.147Z,100991.64
2018-07-21T09:47:23.910Z,100992.05
2018-07-21T09:52:35.788Z,100992.95
2018-07-21T09:55:02.750Z,100990.80
2018-07-21T09:57:32.724Z,100996.47
2018-07-21T10:00:02.089Z,100995.84
2018-07-21T10:02:30.459Z,100989.70
2018-07-21T10:04:58.888Z,100985.47
2018-07-21T10:07:27.282Z,100992.00
2018-07-21T10:12:51.585Z,100995.30
2018-07-21T10:15:21.353Z,100992.71
2018-07-21T10:17:59.151Z,100977.45
2018-07-21T10:29:17.913Z,100991.27
2018-07-21T10:31:46.261Z,100991.09
2018-07-21T10:34:14.995Z,100996.80
2018-07-21T10:36:44.176Z,100992.16
2018-07-21T10:39:13.357Z,100984.38
2018-07-21T10:41:41.115Z,100983.23
2018-07-21T10:44:09.519Z,100987.47
2018-07-21T10:46:37.863Z,100985.97
2018-07-21T10:49:06.267Z,100986.47
2018-07-21T10:51:35.033Z,100986.23
2018-07-21T10:54:03.656Z,100979.96
2018-07-21T10:56:51.176Z,100968.28
2018-07-21T10:59:27.623Z,100965.42
2018-07-21T11:01:55.981Z,100979.37
2018-07-21T11:04:24.353Z,100977.58
2018-07-21T11:06:52.766Z,100973.19
2018-07-21T11:09:21.141Z,100972.16
2018-07-21T11:11:49.520Z,100971.05
2018-07-21T11:14:18.285Z,100972.47
2018-07-21T11:16:46.685Z,100970.52
2018-07-21T11:19:15.135Z,100968.88
2018-07-21T11:21:43.516Z,100968.70
2018-07-21T11:24:12.169Z,100969.52
2018-07-21T11:26:40.251Z,100971.09
2018-07-21T11:29:08.619Z,100977.45
2018-07-21T11:31:37.041Z,100964.53
2018-07-21T11:34:05.998Z,100967.17
2018-07-21T11:36:36.585Z,100972.95
2018-07-21T11:39:05.028Z,100965.72
2018-07-21T11:41:34.282Z,100971.25
2018-07-21T11:44:02.646Z,100972.78
2018-07-21T11:49:29.719Z,100968.13
2018-07-21T11:51:58.376Z,100964.48
2018-07-21T11:54:27.241Z,100962.84
2018-07-21T11:56:56.276Z,100968.07
2018-07-21T12:02:36.933Z,100968.81
2018-07-21T12:05:20.702Z,100960.63
2018-07-21T12:07:48.411Z,100965.44
2018-07-21T12:10:16.786Z,100970.95
2018-07-21T12:12:45.478Z,100969.78
2018-07-21T12:15:21.013Z,100968.84
2018-07-21T12:17:52.471Z,100973.17
2018-07-21T12:20:21.271Z,100980.14
2018-07-21T12:28:52.950Z,100976.59
2018-07-21T12:34:14.795Z,100962.13
2018-07-21T12:42:41.246Z,100970.45
2018-07-21T12:48:09.931Z,100970.20
2018-07-21T12:50:42.279Z,100961.39
2018-07-21T12:56:12.996Z,100973.43
2018-07-21T12:58:40.731Z,100969.53
2018-07-21T13:04:04.675Z,100967.70
2018-07-21T13:09:30.668Z,100968.28
2018-07-21T13:11:59.037Z,100970.80
2018-07-21T13:14:27.433Z,100969.42
2018-07-21T13:16:55.794Z,100959.95
2018-07-21T13:19:24.169Z,100955.70
2018-07-21T13:21:52.552Z,100956.45
2018-07-21T13:24:28.965Z,100959.31
2018-07-21T13:26:57.379Z,100961.63
2018-07-21T13:29:27.080Z,100958.20
2018-07-21T13:31:54.134Z,100955.48
2018-07-21T13:34:22.534Z,100950.58
2018-07-21T13:36:50.895Z,100958.18
2018-07-21T13:39:19.278Z,100951.34
2018-07-21T13:41:47.654Z,100953.09
2018-07-21T13:44:16.109Z,100953.77
2018-07-21T13:46:46.626Z,100958.13
2018-07-21T13:49:15.709Z,100949.89
2018-07-21T13:51:47.121Z,100952.98
2018-07-21T13:54:15.483Z,100959.17
2018-07-21T13:59:32.415Z,100955.14
2018-07-21T14:02:01.167Z,100952.03
2018-07-21T14:04:29.538Z,100956.30
2018-07-21T14:06:58.551Z,100948.69
2018-07-21T14:09:26.920Z,100944.13
2018-07-21T14:11:55.648Z,100943.34
2018-07-21T14:14:27.820Z,100942.68
2018-07-21T14:16:57.513Z,100940.64
2018-07-21T14:19:24.882Z,100936.08
2018-07-21T14:21:55.490Z,100938.73
2018-07-21T14:24:23.101Z,100937.48
2018-07-21T14:26:58.138Z,100937.00
2018-07-21T14:29:22.906Z,100935.89
2018-07-21T14:31:51.291Z,100934.12
2018-07-21T14:34:20.459Z,100930.59
2018-07-21T14:36:54.518Z,100934.81
2018-07-21T14:39:23.110Z,100936.37
2018-07-21T14:41:51.595Z,100930.75
2018-07-21T14:44:21.325Z,100933.02
2018-07-21T14:46:49.691Z,100939.16
2018-07-21T14:49:18.054Z,100939.57
2018-07-21T14:51:46.431Z,100937.38
2018-07-21T14:54:14.787Z,100932.34
2018-07-21T14:56:43.179Z,100937.20
2018-07-21T14:59:11.570Z,100932.39
2018-07-21T15:01:40.202Z,100934.09
2018-07-21T15:04:10.328Z,100937.05
2018-07-21T15:06:40.129Z,100934.34
2018-07-21T15:09:06.849Z,100935.37
2018-07-21T15:11:35.273Z,100937.12
2018-07-21T15:14:03.645Z,100939.02
2018-07-21T15:16:32.026Z,100939.05
2018-07-21T15:19:00.378Z,100939.66
2018-07-21T15:21:28.745Z,100941.08
2018-07-21T15:23:57.138Z,100940.66
2018-07-21T15:26:25.692Z,100939.30
2018-07-21T15:28:53.837Z,100943.22
2018-07-21T15:31:22.879Z,100943.98
2018-07-21T15:33:53.435Z,100948.89
2018-07-21T15:36:20.906Z,100940.48
2018-07-21T15:38:49.292Z,100941.20
2018-07-21T15:41:18.429Z,100944.05
2018-07-21T15:43:46.808Z,100942.16
2018-07-21T15:46:15.179Z,100944.08
2018-07-21T15:48:44.351Z,100941.52
2018-07-21T15:51:12.510Z,100941.74
2018-07-21T15:53:41.194Z,100945.39
2018-07-21T15:56:09.282Z,100943.86
2018-07-21T15:58:37.693Z,100953.03
2018-07-21T16:01:06.106Z,100950.10
2018-07-21T16:03:34.458Z,100945.59
2018-07-21T16:06:02.888Z,100952.44
2018-07-21T16:08:31.254Z,100948.23
2018-07-21T16:10:59.836Z,100957.17
2018-07-21T16:13:28.033Z,100954.83
2018-07-21T16:15:56.383Z,100946.56
2018-07-21T16:18:25.675Z,100949.37
2018-07-21T16:20:54.040Z,100942.95
2018-07-21T16:23:22.427Z,100948.66
2018-07-21T16:25:51.610Z,100941.00
2018-07-21T16:28:23.062Z,100939.77
2018-07-21T16:30:51.756Z,100938.20
2018-07-21T16:33:22.722Z,100937.27
2018-07-21T16:35:50.146Z,100931.79
2018-07-21T16:38:18.486Z,100937.10
2018-07-21T16:40:46.849Z,100934.75
2018-07-21T16:43:15.294Z,100937.30
2018-07-21T16:45:43.680Z,100933.50
2018-07-21T16:48:12.825Z,100938.42
2018-07-21T16:50:42.051Z,100941.09
2018-07-21T16:55:51.024Z,100943.59
2018-07-21T16:58:19.420Z,100945.18
2018-07-21T17:00:47.939Z,100945.47
2018-07-21T17:03:16.311Z,100949.95
2018-07-21T17:05:44.667Z,100948.73
2018-07-21T17:08:13.216Z,100946.89
2018-07-21T17:10:42.080Z,100946.02
2018-07-21T17:13:10.296Z,100951.75
2018-07-21T17:15:39.134Z,100958.63
2018-07-21T17:18:07.511Z,100960.66
2018-07-21T17:20:38.556Z,100963.36
2018-07-21T17:23:06.925Z,100965.14
2018-07-21T17:25:35.647Z,100962.48
2018-07-21T17:28:04.031Z,100962.27
2018-07-21T17:30:32.405Z,100961.58
2018-07-21T17:33:01.071Z,100952.77
2018-07-21T17:35:29.434Z,100956.19
2018-07-21T17:37:57.799Z,100964.86
2018-07-21T17:40:26.161Z,100961.59
2018-07-21T17:42:55.201Z,100968.08
2018-07-21T17:45:23.558Z,100967.30
2018-07-21T17:47:51.913Z,100974.03
2018-07-21T17:50:20.269Z,100972.02
2018-07-21T17:52:48.636Z,100971.53
2018-07-21T17:55:16.994Z,100972.93
2018-07-21T17:57:45.362Z,100978.29
2018-07-21T18:00:13.767Z,100976.61
2018-07-21T18:02:42.449Z,100977.38
2018-07-21T18:05:11.010Z,100982.40
2018-07-21T18:07:39.368Z,100975.58
2018-07-21T18:10:07.726Z,100975.77
2018-07-21T18:12:36.077Z,100973.33
2018-07-21T18:15:04.437Z,100972.32
2018-07-21T18:17:32.882Z,100973.33
2018-07-21T18:20:01.253Z,100971.08
2018-07-21T18:22:29.598Z,100973.43
2018-07-21T18:24:57.974Z,100978.12
2018-07-21T18:27:26.350Z,100978.59
2018-07-21T18:29:54.723Z,100980.78
2018-07-21T18:32:23.092Z,100983.61
2018-07-21T18:34:51.453Z,100982.62
2018-07-21T18:37:19.809Z,100982.72
2018-07-21T18:39:48.219Z,100987.06
2018-07-21T18:42:16.560Z,100988.98
2018-07-21T18:44:44.916Z,100991.25
2018-07-21T18:47:13.276Z,100997.62
2018-07-21T18:49:42.564Z,100998.90
2018-07-21T18:52:29.139Z,101001.38
2018-07-21T18:55:04.708Z,100997.71
2018-07-21T18:57:33.204Z,100999.97
2018-07-21T19:00:01.576Z,100996.89
2018-07-21T19:02:30.194Z,101003.74
2018-07-21T19:04:58.704Z,101002.77
2018-07-21T19:07:27.090Z,100997.14
2018-07-21T19:09:55.726Z,101000.36
2018-07-21T19:12:24.095Z,101001.38
2018-07-21T19:14:52.487Z,101001.21
2018-07-21T19:17:20.865Z,101003.20
2018-07-21T19:19:49.293Z,101001.95
2018-07-21T19:22:17.674Z,101005.23
2018-07-21T19:24:46.053Z,101007.22
2018-07-21T19:27:19.935Z,101007.34
2018-07-21T19:29:48.779Z,101009.84
2018-07-21T19:32:17.168Z,101011.17
2018-07-21T19:34:45.541Z,101013.53
2018-07-21T19:37:14.188Z,101005.95
2018-07-21T19:39:42.341Z,101006.87
2018-07-21T19:42:10.704Z,101003.75
2018-07-21T19:44:39.092Z,101007.80
2018-07-21T19:47:31.301Z,101005.19
2018-07-21T19:49:59.652Z,101004.05
2018-07-21T19:52:28.057Z,101005.06
2018-07-21T19:57:53.587Z,101009.85
2018-07-21T20:00:29.147Z,101007.20
2018-07-21T20:02:59.285Z,101006.94
2018-07-21T20:05:33.866Z,101015.82
2018-07-21T20:08:03.080Z,101019.01
2018-07-21T20:10:31.446Z,101015.60
2018-07-21T20:12:59.810Z,101017.63
2018-07-21T20:15:28.191Z,101020.79
2018-07-21T20:17:56.580Z,101023.27
2018-07-21T20:23:13.230Z,101023.34
2018-07-21T20:25:41.598Z,101019.52
2018-07-21T20:28:12.032Z,101018.41
2018-07-21T20:30:47.683Z,101021.64
2018-07-21T20:33:16.341Z,101024.67
2018-07-21T20:35:44.732Z,101023.55
2018-07-21T20:38:13.104Z,101020.70
2018-07-21T20:40:41.549Z,101022.65
2018-07-21T20:43:09.910Z,101024.61
2018-07-21T20:45:41.382Z,101026.80
2018-07-21T20:48:10.209Z,101028.78
2018-07-21T20:50:38.540Z,101028.88
2018-07-21T20:53:07.203Z,101027.89
2018-07-21T20:55:35.600Z,101029.10
2018-07-21T20:58:03.964Z,101027.78
2018-07-21T21:00:32.428Z,101019.86
2018-07-21T21:03:00.712Z,101022.67
2018-07-21T21:05:29.308Z,101018.48
2018-07-21T21:07:57.697Z,101018.08
2018-07-21T21:10:26.204Z,101021.22
2018-07-21T21:12:56.751Z,101018.88
2018-07-21T21:15:25.111Z,101021.93
2018-07-21T21:20:35.749Z,101017.45
2018-07-21T21:23:03.895Z,101018.85
2018-07-21T21:25:32.245Z,101023.56
2018-07-21T21:28:00.631Z,101020.51
2018-07-21T21:30:29.266Z,101021.92
2018-07-21T21:32:58.051Z,101015.36
2018-07-21T21:35:26.187Z,101020.86
2018-07-21T21:37:54.549Z,101016.87
2018-07-21T21:40:24.188Z,101017.36
2018-07-21T21:42:52.445Z,101013.77
2018-07-21T21:45:20.839Z,101017.28
2018-07-21T21:47:49.435Z,101016.61
2018-07-21T21:50:17.566Z,101018.25
2018-07-21T21:52:45.969Z,101017.10
2018-07-21T21:55:14.355Z,101018.12
2018-07-21T21:57:43.859Z,101017.34
2018-07-21T22:00:12.327Z,101012.92
2018-07-21T22:02:42.014Z,101015.02
2018-07-21T22:05:11.236Z,101018.22
2018-07-21T22:07:39.380Z,101019.89
2018-07-21T22:10:07.751Z,101019.38
2018-07-21T22:12:36.107Z,101015.92
2018-07-21T22:15:04.469Z,101017.80
2018-07-21T22:17:33.792Z,101018.05
2018-07-21T22:20:02.201Z,101024.59
2018-07-21T22:22:30.644Z,101023.67
2018-07-21T22:24:59.041Z,101024.59
2018-07-21T22:27:27.409Z,101021.86
2018-07-21T22:29:56.588Z,101026.64
2018-07-21T22:32:25.045Z,101023.36
2018-07-21T22:34:53.450Z,101020.70
2018-07-21T22:37:21.775Z,101019.73
2018-07-21T22:39:50.507Z,101026.98
2018-07-21T22:42:18.929Z,101027.12
2018-07-21T22:44:47.575Z,101026.52
2018-07-21T22:47:15.944Z,101021.41
2018-07-21T22:49:44.663Z,101016.33
2018-07-21T22:52:13.950Z,101020.00
2018-07-21T22:54:42.100Z,101018.34
2018-07-21T22:57:20.621Z,101022.42
2018-07-21T22:59:49.795Z,101017.98
2018-07-21T23:02:18.167Z,101019.24
2018-07-21T23:04:46.522Z,101023.29
2018-07-21T23:07:15.199Z,101019.17
2018-07-21T23:09:43.589Z,101022.70
2018-07-21T23:12:12.098Z,101025.95
2018-07-21T23:14:40.465Z,101025.72
2018-07-21T23:17:08.819Z,101022.83
2018-07-21T23:19:38.196Z,101026.08
2018-07-21T23:22:06.563Z,101024.17
2018-07-21T23:24:34.972Z,101027.94
2018-07-21T23:27:03.958Z,101032.94
2018-07-21T23:29:32.328Z,101026.61
2018-07-21T23:32:00.691Z,101024.67
2018-07-21T23:34:29.046Z,101024.16
2018-07-21T23:36:57.423Z,101021.44
2018-07-21T23:39:25.797Z,101017.88
2018-07-21T23:41:54.163Z,101015.22
2018-07-21T23:44:23.151Z,101019.77
2018-07-21T23:46:51.528Z,101015.98
2018-07-21T23:49:19.883Z,101012.87
2018-07-21T23:51:48.252Z,101013.30
2018-07-21T23:54:16.852Z,101007.75
2018-07-21T23:56:45.230Z,101007.32
2018-07-21T23:59:13.591Z,101009.13
